sensor_id;sensor_type;location;lat;lon;timestamp;pressure;altitude;pressure_sealevel;temperature;humidity
76940;BME280;65885;55.848;35.916;2023-06-26T00:00:50;99195.72;;;13.20;67.11
76940;BME280;65885;55.848;35.916;2023-06-26T00:03:17;99189.78;;;13.16;68.14
76940;BME280;65885;55.848;35.916;2023-06-26T00:05:45;99191.72;;;13.13;67.68
76940;BME280;65885;55.848;35.916;2023-06-26T00:08:12;99186.63;;;13.10;67.96
76940;BME280;65885;55.848;35.916;2023-06-26T00:10:39;99192.84;;;13.09;68.58
76940;BME280;65885;55.848;35.916;2023-06-26T00:13:08;99190.34;;;13.05;68.88
76940;BME280;65885;55.848;35.916;2023-06-26T00:15:38;99193.06;;;13.04;68.45
76940;BME280;65885;55.848;35.916;2023-06-26T00:18:06;99187.81;;;13.04;67.96
76940;BME280;65885;55.848;35.916;2023-06-26T00:20:33;99186.03;;;13.04;68.91
76940;BME280;65885;55.848;35.916;2023-06-26T00:23:00;99179.91;;;13.04;69.59
76940;BME280;65885;55.848;35.916;2023-06-26T00:25:29;99184.25;;;13.05;70.24
76940;BME280;65885;55.848;35.916;2023-06-26T00:27:57;99181.59;;;13.05;71.11
76940;BME280;65885;55.848;35.916;2023-06-26T00:30:25;99178.88;;;13.06;71.91
76940;BME280;65885;55.848;35.916;2023-06-26T00:32:52;99171.91;;;13.05;72.23
76940;BME280;65885;55.848;35.916;2023-06-26T00:35:20;99170.97;;;13.06;71.72
76940;BME280;65885;55.848;35.916;2023-06-26T00:37:47;99176.19;;;13.08;70.86
76940;BME280;65885;55.848;35.916;2023-06-26T00:40:16;99172.53;;;13.11;69.71
76940;BME280;65885;55.848;35.916;2023-06-26T00:42:43;99172.28;;;13.15;69.58
76940;BME280;65885;55.848;35.916;2023-06-26T00:45:11;99180.00;;;13.18;70.36
76940;BME280;65885;55.848;35.916;2023-06-26T00:47:40;99178.16;;;13.20;70.50
76940;BME280;65885;55.848;35.916;2023-06-26T00:50:08;99174.56;;;13.21;69.90
76940;BME280;65885;55.848;35.916;2023-06-26T00:52:36;99176.25;;;13.22;70.61
76940;BME280;65885;55.848;35.916;2023-06-26T00:55:04;99173.56;;;13.24;69.77
76940;BME280;65885;55.848;35.916;2023-06-26T00:57:31;99176.13;;;13.25;69.45
76940;BME280;65885;55.848;35.916;2023-06-26T00:59:59;99171.69;;;13.26;69.06
76940;BME280;65885;55.848;35.916;2023-06-26T01:02:29;99175.94;;;13.28;69.66
76940;BME280;65885;55.848;35.916;2023-06-26T01:05:01;99176.78;;;13.29;69.67
76940;BME280;65885;55.848;35.916;2023-06-26T01:07:32;99182.81;;;13.31;68.85
76940;BME280;65885;55.848;35.916;2023-06-26T01:10:03;99179.25;;;13.32;69.25
76940;BME280;65885;55.848;35.916;2023-06-26T01:12:31;99179.16;;;13.33;69.04
76940;BME280;65885;55.848;35.916;2023-06-26T01:14:59;99176.53;;;13.33;69.03
76940;BME280;65885;55.848;35.916;2023-06-26T01:17:27;99176.44;;;13.35;69.63
76940;BME280;65885;55.848;35.916;2023-06-26T01:20:00;99172.84;;;13.36;69.95
76940;BME280;65885;55.848;35.916;2023-06-26T01:22:36;99181.59;;;13.37;69.94
76940;BME280;65885;55.848;35.916;2023-06-26T01:25:17;99172.78;;;13.38;70.47
76940;BME280;65885;55.848;35.916;2023-06-26T01:27:48;99175.34;;;13.39;70.68
76940;BME280;65885;55.848;35.916;2023-06-26T01:30:17;99179.56;;;13.42;70.31
76940;BME280;65885;55.848;35.916;2023-06-26T01:32:45;99174.19;;;13.43;70.39
76940;BME280;65885;55.848;35.916;2023-06-26T01:35:13;99181.09;;;13.46;70.44
76940;BME280;65885;55.848;35.916;2023-06-26T01:37:41;99178.28;;;13.49;70.93
76940;BME280;65885;55.848;35.916;2023-06-26T01:40:10;99176.41;;;13.51;71.21
76940;BME280;65885;55.848;35.916;2023-06-26T01:42:37;99181.50;;;13.54;71.80
76940;BME280;65885;55.848;35.916;2023-06-26T01:45:10;99172.56;;;13.56;71.88
76940;BME280;65885;55.848;35.916;2023-06-26T01:47:40;99177.59;;;13.61;72.01
76940;BME280;65885;55.848;35.916;2023-06-26T01:50:16;99175.69;;;13.63;72.44
76940;BME280;65885;55.848;35.916;2023-06-26T01:52:52;99179.09;;;13.65;72.06
76940;BME280;65885;55.848;35.916;2023-06-26T01:55:26;99176.28;;;13.68;71.16
76940;BME280;65885;55.848;35.916;2023-06-26T01:57:56;99174.13;;;13.75;70.27
76940;BME280;65885;55.848;35.916;2023-06-26T02:00:27;99174.59;;;13.81;70.58
76940;BME280;65885;55.848;35.916;2023-06-26T02:02:54;99174.34;;;13.86;70.43
76940;BME280;65885;55.848;35.916;2023-06-26T02:05:22;99173.22;;;13.90;69.63
76940;BME280;65885;55.848;35.916;2023-06-26T02:07:49;99175.47;;;13.96;69.83
76940;BME280;65885;55.848;35.916;2023-06-26T02:10:17;99181.34;;;14.01;70.38
76940;BME280;65885;55.848;35.916;2023-06-26T02:12:45;99177.50;;;14.07;70.64
76940;BME280;65885;55.848;35.916;2023-06-26T02:15:12;99170.13;;;14.12;70.84
76940;BME280;65885;55.848;35.916;2023-06-26T02:17:41;99177.69;;;14.18;70.99
76940;BME280;65885;55.848;35.916;2023-06-26T02:20:08;99175.63;;;14.23;70.98
76940;BME280;65885;55.848;35.916;2023-06-26T02:22:36;99170.84;;;14.30;71.14
76940;BME280;65885;55.848;35.916;2023-06-26T02:25:04;99172.16;;;14.37;70.87
76940;BME280;65885;55.848;35.916;2023-06-26T02:27:31;99167.34;;;14.43;71.12
76940;BME280;65885;55.848;35.916;2023-06-26T02:29:58;99168.66;;;14.51;71.01
76940;BME280;65885;55.848;35.916;2023-06-26T02:32:26;99166.50;;;14.57;70.21
76940;BME280;65885;55.848;35.916;2023-06-26T02:34:56;99169.50;;;14.65;70.35
76940;BME280;65885;55.848;35.916;2023-06-26T02:37:23;99173.38;;;14.74;70.81
76940;BME280;65885;55.848;35.916;2023-06-26T02:39:50;99167.63;;;14.82;70.87
76940;BME280;65885;55.848;35.916;2023-06-26T02:42:18;99168.06;;;14.88;70.78
76940;BME280;65885;55.848;35.916;2023-06-26T02:44:45;99168.34;;;14.98;70.68
76940;BME280;65885;55.848;35.916;2023-06-26T02:47:12;99170.50;;;15.06;70.15
76940;BME280;65885;55.848;35.916;2023-06-26T02:49:39;99168.94;;;15.16;69.96
76940;BME280;65885;55.848;35.916;2023-06-26T02:52:08;99177.97;;;15.26;70.47
76940;BME280;65885;55.848;35.916;2023-06-26T02:54:36;99170.41;;;15.34;70.74
76940;BME280;65885;55.848;35.916;2023-06-26T02:57:03;99183.75;;;15.45;70.77
76940;BME280;65885;55.848;35.916;2023-06-26T02:59:31;99178.81;;;15.53;71.03
76940;BME280;65885;55.848;35.916;2023-06-26T03:01:58;99178.16;;;15.64;71.13
76940;BME280;65885;55.848;35.916;2023-06-26T03:04:26;99176.69;;;15.73;70.67
76940;BME280;65885;55.848;35.916;2023-06-26T03:06:53;99176.91;;;15.82;69.67
76940;BME280;65885;55.848;35.916;2023-06-26T03:09:22;99178.81;;;15.93;68.82
76940;BME280;65885;55.848;35.916;2023-06-26T03:11:49;99171.13;;;16.03;68.33
76940;BME280;65885;55.848;35.916;2023-06-26T03:14:16;99178.31;;;16.14;68.30
76940;BME280;65885;55.848;35.916;2023-06-26T03:16:44;99183.72;;;16.25;68.98
76940;BME280;65885;55.848;35.916;2023-06-26T03:19:11;99182.13;;;16.35;69.35
76940;BME280;65885;55.848;35.916;2023-06-26T03:21:38;99172.47;;;16.47;69.40
76940;BME280;65885;55.848;35.916;2023-06-26T03:24:06;99169.94;;;16.58;69.59
76940;BME280;65885;55.848;35.916;2023-06-26T03:26:34;99170.88;;;16.70;69.83
76940;BME280;65885;55.848;35.916;2023-06-26T03:29:02;99165.56;;;16.82;70.04
76940;BME280;65885;55.848;35.916;2023-06-26T03:31:29;99167.34;;;16.95;70.22
76940;BME280;65885;55.848;35.916;2023-06-26T03:33:56;99169.94;;;17.07;70.39
76940;BME280;65885;55.848;35.916;2023-06-26T03:36:23;99174.34;;;17.19;70.52
76940;BME280;65885;55.848;35.916;2023-06-26T03:38:51;99172.63;;;17.31;70.35
76940;BME280;65885;55.848;35.916;2023-06-26T03:41:22;99169.06;;;17.43;70.50
76940;BME280;65885;55.848;35.916;2023-06-26T03:43:51;99174.41;;;17.55;70.30
76940;BME280;65885;55.848;35.916;2023-06-26T03:46:19;99168.94;;;17.69;70.38
76940;BME280;65885;55.848;35.916;2023-06-26T03:48:46;99167.91;;;17.83;69.72
76940;BME280;65885;55.848;35.916;2023-06-26T03:51:14;99168.66;;;17.96;69.13
76940;BME280;65885;55.848;35.916;2023-06-26T03:53:41;99170.13;;;18.11;68.61
76940;BME280;65885;55.848;35.916;2023-06-26T03:56:08;99177.19;;;18.23;68.41
76940;BME280;65885;55.848;35.916;2023-06-26T03:58:36;99176.97;;;18.38;68.01
76940;BME280;65885;55.848;35.916;2023-06-26T04:01:04;99173.09;;;18.53;67.94
76940;BME280;65885;55.848;35.916;2023-06-26T04:03:33;99173.72;;;18.68;67.88
76940;BME280;65885;55.848;35.916;2023-06-26T04:06:01;99178.66;;;18.83;68.13
76940;BME280;65885;55.848;35.916;2023-06-26T04:08:28;99181.06;;;18.98;68.08
76940;BME280;65885;55.848;35.916;2023-06-26T04:10:55;99179.94;;;19.11;67.38
76940;BME280;65885;55.848;35.916;2023-06-26T04:13:24;99177.00;;;19.26;66.87
76940;BME280;65885;55.848;35.916;2023-06-26T04:15:51;99176.72;;;19.40;66.29
76940;BME280;65885;55.848;35.916;2023-06-26T04:18:20;99180.91;;;19.54;65.54
76940;BME280;65885;55.848;35.916;2023-06-26T04:21:06;99179.09;;;19.65;64.95
76940;BME280;65885;55.848;35.916;2023-06-26T04:23:33;99184.09;;;19.80;64.47
76940;BME280;65885;55.848;35.916;2023-06-26T04:26:01;99176.06;;;19.91;64.12
76940;BME280;65885;55.848;35.916;2023-06-26T04:28:30;99175.13;;;20.02;63.33
76940;BME280;65885;55.848;35.916;2023-06-26T04:30:58;99176.06;;;20.12;62.46
76940;BME280;65885;55.848;35.916;2023-06-26T04:33:27;99174.16;;;20.23;62.11
76940;BME280;65885;55.848;35.916;2023-06-26T04:35:54;99178.59;;;20.34;61.59
76940;BME280;65885;55.848;35.916;2023-06-26T04:38:21;99178.53;;;20.45;61.19
76940;BME280;65885;55.848;35.916;2023-06-26T04:40:49;99184.03;;;20.54;60.09
76940;BME280;65885;55.848;35.916;2023-06-26T04:43:16;99191.66;;;20.68;60.92
76940;BME280;65885;55.848;35.916;2023-06-26T04:45:43;99178.50;;;20.76;61.16
76940;BME280;65885;55.848;35.916;2023-06-26T04:48:11;99176.75;;;20.86;60.44
76940;BME280;65885;55.848;35.916;2023-06-26T04:50:40;99179.28;;;20.97;60.13
76940;BME280;65885;55.848;35.916;2023-06-26T04:53:07;99172.72;;;21.11;60.49
76940;BME280;65885;55.848;35.916;2023-06-26T04:55:35;99173.31;;;21.24;60.51
76940;BME280;65885;55.848;35.916;2023-06-26T04:58:02;99169.72;;;21.35;60.10
76940;BME280;65885;55.848;35.916;2023-06-26T05:00:29;99169.59;;;21.46;60.03
76940;BME280;65885;55.848;35.916;2023-06-26T05:02:57;99170.28;;;21.58;60.04
76940;BME280;65885;55.848;35.916;2023-06-26T05:05:26;99169.28;;;21.69;59.66
76940;BME280;65885;55.848;35.916;2023-06-26T05:07:56;99176.34;;;21.79;58.84
76940;BME280;65885;55.848;35.916;2023-06-26T05:10:23;99176.47;;;21.87;57.22
76940;BME280;65885;55.848;35.916;2023-06-26T05:12:51;99170.94;;;21.99;57.97
76940;BME280;65885;55.848;35.916;2023-06-26T05:15:18;99169.41;;;22.06;57.92
76940;BME280;65885;55.848;35.916;2023-06-26T05:17:45;99164.34;;;22.12;56.88
76940;BME280;65885;55.848;35.916;2023-06-26T05:20:12;99168.72;;;22.23;56.84
76940;BME280;65885;55.848;35.916;2023-06-26T05:22:40;99161.34;;;22.35;57.12
76940;BME280;65885;55.848;35.916;2023-06-26T05:25:10;99156.53;;;22.48;56.92
76940;BME280;65885;55.848;35.916;2023-06-26T05:27:38;99160.41;;;22.63;56.30
76940;BME280;65885;55.848;35.916;2023-06-26T05:30:07;99151.22;;;22.76;56.14
76940;BME280;65885;55.848;35.916;2023-06-26T05:32:35;99150.75;;;22.90;55.50
76940;BME280;65885;55.848;35.916;2023-06-26T05:35:03;99163.16;;;23.09;56.66
76940;BME280;65885;55.848;35.916;2023-06-26T05:37:31;99157.47;;;23.21;56.02
76940;BME280;65885;55.848;35.916;2023-06-26T05:40:00;99165.41;;;23.31;54.25
76940;BME280;65885;55.848;35.916;2023-06-26T05:42:31;99162.22;;;23.45;54.65
76940;BME280;65885;55.848;35.916;2023-06-26T05:44:59;99168.03;;;23.59;53.60
76940;BME280;65885;55.848;35.916;2023-06-26T05:47:26;99170.34;;;23.71;52.67
76940;BME280;65885;55.848;35.916;2023-06-26T05:49:54;99172.25;;;23.79;51.08
76940;BME280;65885;55.848;35.916;2023-06-26T05:52:22;99169.88;;;23.94;51.47
76940;BME280;65885;55.848;35.916;2023-06-26T05:54:50;99170.63;;;24.04;51.20
76940;BME280;65885;55.848;35.916;2023-06-26T05:57:19;99165.53;;;24.19;51.59
76940;BME280;65885;55.848;35.916;2023-06-26T05:59:48;99174.72;;;24.34;51.28
76940;BME280;65885;55.848;35.916;2023-06-26T06:02:16;99169.53;;;24.41;51.25
76940;BME280;65885;55.848;35.916;2023-06-26T06:04:43;99174.97;;;24.49;50.05
76940;BME280;65885;55.848;35.916;2023-06-26T06:07:10;99163.28;;;24.58;48.99
76940;BME280;65885;55.848;35.916;2023-06-26T06:09:38;99164.16;;;24.67;49.42
76940;BME280;65885;55.848;35.916;2023-06-26T06:12:06;99178.66;;;24.82;49.52
76940;BME280;65885;55.848;35.916;2023-06-26T06:14:34;99170.16;;;24.95;50.17
76940;BME280;65885;55.848;35.916;2023-06-26T06:17:03;99167.41;;;25.12;50.23
76940;BME280;65885;55.848;35.916;2023-06-26T06:19:30;99164.94;;;25.35;50.65
76940;BME280;65885;55.848;35.916;2023-06-26T06:21:58;99165.63;;;25.54;49.39
76940;BME280;65885;55.848;35.916;2023-06-26T06:24:25;99165.53;;;25.80;50.34
76940;BME280;65885;55.848;35.916;2023-06-26T06:26:53;99165.16;;;25.99;49.08
76940;BME280;65885;55.848;35.916;2023-06-26T06:29:20;99159.44;;;26.18;48.77
76940;BME280;65885;55.848;35.916;2023-06-26T06:31:48;99161.44;;;26.33;48.19
76940;BME280;65885;55.848;35.916;2023-06-26T06:34:19;99161.94;;;26.44;47.02
76940;BME280;65885;55.848;35.916;2023-06-26T06:36:46;99155.88;;;26.50;46.51
76940;BME280;65885;55.848;35.916;2023-06-26T06:39:13;99155.00;;;26.58;46.66
76940;BME280;65885;55.848;35.916;2023-06-26T06:41:41;99158.88;;;26.64;44.25
76940;BME280;65885;55.848;35.916;2023-06-26T06:44:08;99156.66;;;26.67;43.34
76940;BME280;65885;55.848;35.916;2023-06-26T06:46:35;99152.78;;;26.70;44.00
76940;BME280;65885;55.848;35.916;2023-06-26T06:49:03;99153.09;;;26.75;45.59
76940;BME280;65885;55.848;35.916;2023-06-26T06:51:32;99151.38;;;26.82;47.22
76940;BME280;65885;55.848;35.916;2023-06-26T06:53:59;99150.69;;;26.88;45.97
76940;BME280;65885;55.848;35.916;2023-06-26T06:56:27;99159.09;;;26.93;45.36
76940;BME280;65885;55.848;35.916;2023-06-26T06:58:54;99152.22;;;26.91;43.93
76940;BME280;65885;55.848;35.916;2023-06-26T07:01:22;99153.72;;;26.93;43.52
76940;BME280;65885;55.848;35.916;2023-06-26T07:03:49;99156.03;;;26.96;43.93
76940;BME280;65885;55.848;35.916;2023-06-26T07:06:17;99154.50;;;27.02;44.68
76940;BME280;65885;55.848;35.916;2023-06-26T07:08:46;99149.47;;;27.07;43.91
76940;BME280;65885;55.848;35.916;2023-06-26T07:11:13;99149.41;;;27.15;44.38
76940;BME280;65885;55.848;35.916;2023-06-26T07:13:40;99153.78;;;27.16;44.05
76940;BME280;65885;55.848;35.916;2023-06-26T07:16:07;99154.94;;;27.22;43.12
76940;BME280;65885;55.848;35.916;2023-06-26T07:18:37;99146.13;;;27.28;43.67
76940;BME280;65885;55.848;35.916;2023-06-26T07:21:05;99147.34;;;27.25;41.42
76940;BME280;65885;55.848;35.916;2023-06-26T07:23:32;99145.13;;;27.29;41.78
76940;BME280;65885;55.848;35.916;2023-06-26T07:26:01;99149.13;;;27.33;41.21
76940;BME280;65885;55.848;35.916;2023-06-26T07:28:28;99146.44;;;27.33;40.19
76940;BME280;65885;55.848;35.916;2023-06-26T07:30:56;99150.81;;;27.34;41.09
76940;BME280;65885;55.848;35.916;2023-06-26T07:33:23;99146.13;;;27.28;40.01
76940;BME280;65885;55.848;35.916;2023-06-26T07:35:50;99143.44;;;27.28;39.79
76940;BME280;65885;55.848;35.916;2023-06-26T07:38:18;99139.75;;;27.29;40.66
76940;BME280;65885;55.848;35.916;2023-06-26T07:40:45;99138.03;;;27.36;41.60
76940;BME280;65885;55.848;35.916;2023-06-26T07:43:14;99137.41;;;27.49;41.33
76940;BME280;65885;55.848;35.916;2023-06-26T07:45:41;99140.50;;;27.69;41.69
76940;BME280;65885;55.848;35.916;2023-06-26T07:48:09;99138.13;;;27.88;42.55
76940;BME280;65885;55.848;35.916;2023-06-26T07:50:36;99131.69;;;28.12;43.20
76940;BME280;65885;55.848;35.916;2023-06-26T07:53:03;99140.09;;;28.32;42.78
76940;BME280;65885;55.848;35.916;2023-06-26T07:55:31;99128.38;;;28.55;40.35
76940;BME280;65885;55.848;35.916;2023-06-26T07:57:58;99136.94;;;28.73;39.83
76940;BME280;65885;55.848;35.916;2023-06-26T08:00:28;99135.19;;;28.95;39.99
76940;BME280;65885;55.848;35.916;2023-06-26T08:02:56;99121.53;;;29.18;40.13
76940;BME280;65885;55.848;35.916;2023-06-26T08:05:23;99125.72;;;29.42;39.33
76940;BME280;65885;55.848;35.916;2023-06-26T08:07:51;99140.75;;;29.66;39.13
76940;BME280;65885;55.848;35.916;2023-06-26T08:10:18;99133.31;;;29.96;39.40
76940;BME280;65885;55.848;35.916;2023-06-26T08:12:45;99129.41;;;30.26;38.68
76940;BME280;65885;55.848;35.916;2023-06-26T08:15:14;99124.34;;;30.51;37.58
76940;BME280;65885;55.848;35.916;2023-06-26T08:17:43;99122.22;;;30.75;37.41
76940;BME280;65885;55.848;35.916;2023-06-26T08:20:11;99132.34;;;31.01;37.93
76940;BME280;65885;55.848;35.916;2023-06-26T08:22:39;99123.25;;;31.28;36.88
76940;BME280;65885;55.848;35.916;2023-06-26T08:25:07;99135.44;;;31.52;35.91
76940;BME280;65885;55.848;35.916;2023-06-26T08:27:35;99135.44;;;31.72;35.95
76940;BME280;65885;55.848;35.916;2023-06-26T08:30:02;99132.56;;;31.87;33.85
76940;BME280;65885;55.848;35.916;2023-06-26T08:32:30;99123.59;;;31.99;33.40
76940;BME280;65885;55.848;35.916;2023-06-26T08:34:59;99127.13;;;32.20;34.37
76940;BME280;65885;55.848;35.916;2023-06-26T08:37:27;99121.25;;;32.43;34.95
76940;BME280;65885;55.848;35.916;2023-06-26T08:39:54;99117.84;;;32.61;33.74
76940;BME280;65885;55.848;35.916;2023-06-26T08:42:22;99112.56;;;32.79;33.31
76940;BME280;65885;55.848;35.916;2023-06-26T08:44:49;99114.84;;;32.82;32.04
76940;BME280;65885;55.848;35.916;2023-06-26T08:47:16;99110.06;;;32.77;31.25
76940;BME280;65885;55.848;35.916;2023-06-26T08:49:47;99116.41;;;32.58;29.82
76940;BME280;65885;55.848;35.916;2023-06-26T08:52:23;99117.91;;;32.34;29.58
76940;BME280;65885;55.848;35.916;2023-06-26T08:54:55;99118.75;;;32.08;29.04
76940;BME280;65885;55.848;35.916;2023-06-26T08:57:23;99121.69;;;31.80;28.93
76940;BME280;65885;55.848;35.916;2023-06-26T08:59:52;99113.09;;;31.57;29.59
76940;BME280;65885;55.848;35.916;2023-06-26T09:02:20;99108.25;;;31.32;30.64
76940;BME280;65885;55.848;35.916;2023-06-26T09:04:48;99101.53;;;31.15;31.15
76940;BME280;65885;55.848;35.916;2023-06-26T09:07:15;99110.19;;;30.90;30.50
76940;BME280;65885;55.848;35.916;2023-06-26T09:09:44;99111.16;;;30.70;30.09
76940;BME280;65885;55.848;35.916;2023-06-26T09:12:13;99113.69;;;30.43;30.24
76940;BME280;65885;55.848;35.916;2023-06-26T09:14:41;99116.41;;;30.15;30.46
76940;BME280;65885;55.848;35.916;2023-06-26T09:17:08;99105.13;;;29.83;32.31
76940;BME280;65885;55.848;35.916;2023-06-26T09:19:37;99108.66;;;29.56;33.36
76940;BME280;65885;55.848;35.916;2023-06-26T09:22:11;99104.59;;;29.30;33.61
76940;BME280;65885;55.848;35.916;2023-06-26T09:24:38;99102.06;;;29.08;33.79
76940;BME280;65885;55.848;35.916;2023-06-26T09:27:09;99108.91;;;28.89;34.98
76940;BME280;65885;55.848;35.916;2023-06-26T09:29:36;99105.59;;;28.72;36.09
76940;BME280;65885;55.848;35.916;2023-06-26T09:32:05;99100.00;;;28.59;36.02
76940;BME280;65885;55.848;35.916;2023-06-26T09:34:35;99092.94;;;28.43;36.35
76940;BME280;65885;55.848;35.916;2023-06-26T09:37:03;99108.75;;;28.31;36.62
76940;BME280;65885;55.848;35.916;2023-06-26T09:39:31;99103.97;;;28.18;35.00
76940;BME280;65885;55.848;35.916;2023-06-26T09:41:58;99106.00;;;28.02;34.32
76940;BME280;65885;55.848;35.916;2023-06-26T09:44:30;99107.81;;;27.86;34.53
76940;BME280;65885;55.848;35.916;2023-06-26T09:46:58;99113.47;;;27.77;35.53
76940;BME280;65885;55.848;35.916;2023-06-26T09:49:25;99112.88;;;27.67;35.73
76940;BME280;65885;55.848;35.916;2023-06-26T09:51:53;99109.44;;;27.50;35.27
76940;BME280;65885;55.848;35.916;2023-06-26T09:54:22;99105.06;;;27.26;38.01
76940;BME280;65885;55.848;35.916;2023-06-26T09:56:50;99105.91;;;26.95;37.65
76940;BME280;65885;55.848;35.916;2023-06-26T09:59:18;99107.22;;;26.68;37.88
76940;BME280;65885;55.848;35.916;2023-06-26T10:01:47;99109.50;;;26.40;37.80
76940;BME280;65885;55.848;35.916;2023-06-26T10:04:14;99105.00;;;26.16;38.43
76940;BME280;65885;55.848;35.916;2023-06-26T10:06:46;99105.91;;;25.92;39.00
76940;BME280;65885;55.848;35.916;2023-06-26T10:09:17;99110.59;;;25.74;40.46
76940;BME280;65885;55.848;35.916;2023-06-26T10:11:47;99101.50;;;25.51;40.30
76940;BME280;65885;55.848;35.916;2023-06-26T10:14:16;99101.66;;;25.25;40.91
76940;BME280;65885;55.848;35.916;2023-06-26T10:16:45;99100.72;;;25.00;41.49
76940;BME280;65885;55.848;35.916;2023-06-26T10:19:17;99095.47;;;24.82;42.40
76940;BME280;65885;55.848;35.916;2023-06-26T10:21:51;99105.00;;;24.68;42.74
76940;BME280;65885;55.848;35.916;2023-06-26T10:24:20;99101.56;;;24.50;42.65
76940;BME280;65885;55.848;35.916;2023-06-26T10:26:50;99096.47;;;24.39;43.49
76940;BME280;65885;55.848;35.916;2023-06-26T10:29:20;99087.69;;;24.28;44.30
76940;BME280;65885;55.848;35.916;2023-06-26T10:31:51;99091.34;;;24.19;44.39
76940;BME280;65885;55.848;35.916;2023-06-26T10:34:21;99089.28;;;24.13;44.30
76940;BME280;65885;55.848;35.916;2023-06-26T10:36:58;99081.53;;;24.10;44.06
76940;BME280;65885;55.848;35.916;2023-06-26T10:39:26;99087.75;;;24.11;44.44
76940;BME280;65885;55.848;35.916;2023-06-26T10:41:55;99084.75;;;24.14;44.83
76940;BME280;65885;55.848;35.916;2023-06-26T10:44:40;99083.81;;;24.23;43.94
76940;BME280;65885;55.848;35.916;2023-06-26T10:47:08;99079.72;;;24.37;43.78
76940;BME280;65885;55.848;35.916;2023-06-26T10:49:37;99086.66;;;24.55;43.56
76940;BME280;65885;55.848;35.916;2023-06-26T10:52:06;99079.53;;;24.72;43.49
76940;BME280;65885;55.848;35.916;2023-06-26T10:54:33;99079.75;;;24.87;43.55
76940;BME280;65885;55.848;35.916;2023-06-26T10:57:02;99070.41;;;25.07;43.67
76940;BME280;65885;55.848;35.916;2023-06-26T10:59:31;99066.41;;;25.28;43.63
76940;BME280;65885;55.848;35.916;2023-06-26T11:01:59;99063.91;;;25.51;43.85
76940;BME280;65885;55.848;35.916;2023-06-26T11:04:39;99052.81;;;25.86;44.04
76940;BME280;65885;55.848;35.916;2023-06-26T11:07:18;99060.09;;;26.33;43.38
76940;BME280;65885;55.848;35.916;2023-06-26T11:09:58;99048.13;;;26.83;42.25
76940;BME280;65885;55.848;35.916;2023-06-26T11:12:37;99052.88;;;27.27;41.47
76940;BME280;65885;55.848;35.916;2023-06-26T11:15:07;99054.38;;;27.52;40.52
76940;BME280;65885;55.848;35.916;2023-06-26T11:17:35;99052.38;;;27.69;41.02
76940;BME280;65885;55.848;35.916;2023-06-26T11:20:05;99047.47;;;27.73;41.09
76940;BME280;65885;55.848;35.916;2023-06-26T11:22:35;99048.19;;;27.67;40.41
76940;BME280;65885;55.848;35.916;2023-06-26T11:25:04;99043.22;;;27.55;37.46
76940;BME280;65885;55.848;35.916;2023-06-26T11:27:32;99044.66;;;27.43;37.33
76940;BME280;65885;55.848;35.916;2023-06-26T11:30:06;99044.25;;;27.31;39.06
76940;BME280;65885;55.848;35.916;2023-06-26T11:32:34;99053.72;;;27.27;39.29
76940;BME280;65885;55.848;35.916;2023-06-26T11:35:01;99046.78;;;27.33;38.51
76940;BME280;65885;55.848;35.916;2023-06-26T11:37:31;99042.06;;;27.50;38.49
76940;BME280;65885;55.848;35.916;2023-06-26T11:39:59;99044.59;;;27.74;38.43
76940;BME280;65885;55.848;35.916;2023-06-26T11:42:27;99033.47;;;28.07;38.25
76940;BME280;65885;55.848;35.916;2023-06-26T11:44:55;99026.50;;;28.42;37.34
76940;BME280;65885;55.848;35.916;2023-06-26T11:47:22;99025.47;;;28.79;37.27
76940;BME280;65885;55.848;35.916;2023-06-26T11:49:50;99022.56;;;29.17;36.83
76940;BME280;65885;55.848;35.916;2023-06-26T11:52:17;99016.31;;;29.59;36.66
76940;BME280;65885;55.848;35.916;2023-06-26T11:54:46;99015.97;;;29.97;35.20
76940;BME280;65885;55.848;35.916;2023-06-26T11:57:15;99012.63;;;30.29;34.21
76940;BME280;65885;55.848;35.916;2023-06-26T11:59:43;99001.69;;;30.51;33.76
76940;BME280;65885;55.848;35.916;2023-06-26T12:02:14;99005.03;;;30.59;33.05
76940;BME280;65885;55.848;35.916;2023-06-26T12:04:42;99009.03;;;30.63;33.28
76940;BME280;65885;55.848;35.916;2023-06-26T12:07:11;99007.75;;;30.59;33.74
76940;BME280;65885;55.848;35.916;2023-06-26T12:09:41;99005.88;;;30.60;34.01
76940;BME280;65885;55.848;35.916;2023-06-26T12:12:14;99002.56;;;30.64;34.16
76940;BME280;65885;55.848;35.916;2023-06-26T12:14:43;98992.63;;;30.72;34.03
76940;BME280;65885;55.848;35.916;2023-06-26T12:17:12;99003.50;;;30.85;34.85
76940;BME280;65885;55.848;35.916;2023-06-26T12:19:44;99007.28;;;31.04;35.23
76940;BME280;65885;55.848;35.916;2023-06-26T12:22:13;99008.53;;;31.21;34.84
76940;BME280;65885;55.848;35.916;2023-06-26T12:24:43;98997.34;;;31.37;34.12
76940;BME280;65885;55.848;35.916;2023-06-26T12:27:13;98997.75;;;31.54;33.80
76940;BME280;65885;55.848;35.916;2023-06-26T12:29:49;99000.22;;;31.69;33.09
76940;BME280;65885;55.848;35.916;2023-06-26T12:32:17;98999.00;;;31.78;32.30
76940;BME280;65885;55.848;35.916;2023-06-26T12:34:48;99002.75;;;31.84;32.23
76940;BME280;65885;55.848;35.916;2023-06-26T12:37:16;99001.91;;;31.83;32.52
76940;BME280;65885;55.848;35.916;2023-06-26T12:39:48;98997.53;;;31.69;32.47
76940;BME280;65885;55.848;35.916;2023-06-26T12:42:18;98997.75;;;31.47;32.61
76940;BME280;65885;55.848;35.916;2023-06-26T12:44:46;98999.00;;;31.25;32.95
76940;BME280;65885;55.848;35.916;2023-06-26T12:47:15;98997.91;;;31.00;32.85
76940;BME280;65885;55.848;35.916;2023-06-26T12:49:43;98995.47;;;30.63;33.84
76940;BME280;65885;55.848;35.916;2023-06-26T12:52:12;98999.09;;;30.29;34.20
76940;BME280;65885;55.848;35.916;2023-06-26T12:54:40;98989.94;;;29.96;34.81
76940;BME280;65885;55.848;35.916;2023-06-26T12:57:08;98991.38;;;29.57;35.18